sensor_id;sensor_type;location;lat;lon;timestamp;P1;durP1;ratioP1;P2;durP2;ratioP2
25567;SDS011;13455;51.480;7.594;2023-04-30T00:01:03;15.57;;;9.15;;
25567;SDS011;13455;51.480;7.594;2023-04-30T00:03:28;14.27;;;9.20;;
25567;SDS011;13455;51.480;7.594;2023-04-30T00:05:54;13.35;;;8.85;;
25567;SDS011;13455;51.480;7.594;2023-04-30T00:08:20;12.73;;;9.07;;
25567;SDS011;13455;51.480;7.594;2023-04-30T00:10:46;13.32;;;8.52;;
25567;SDS011;13455;51.480;7.594;2023-04-30T00:13:12;12.00;;;8.70;;
25567;SDS011;13455;51.480;7.594;2023-04-30T00:15:40;12.70;;;8.77;;
25567;SDS011;13455;51.480;7.594;2023-04-30T00:18:05;13.43;;;9.00;;
25567;SDS011;13455;51.480;7.594;2023-04-30T00:20:31;14.65;;;9.20;;
25567;SDS011;13455;51.480;7.594;2023-04-30T00:22:59;12.85;;;9.07;;
25567;SDS011;13455;51.480;7.594;2023-04-30T00:25:25;12.30;;;8.70;;
25567;SDS011;13455;51.480;7.594;2023-04-30T00:27:51;13.88;;;9.15;;
25567;SDS011;13455;51.480;7.594;2023-04-30T00:30:17;13.60;;;8.67;;
25567;SDS011;13455;51.480;7.594;2023-04-30T00:32:43;12.67;;;8.70;;
25567;SDS011;13455;51.480;7.594;2023-04-30T00:35:10;13.27;;;8.90;;
25567;SDS011;13455;51.480;7.594;2023-04-30T00:37:35;11.50;;;8.63;;
25567;SDS011;13455;51.480;7.594;2023-04-30T00:40:01;11.97;;;8.70;;
25567;SDS011;13455;51.480;7.594;2023-04-30T00:42:27;13.67;;;8.80;;
25567;SDS011;13455;51.480;7.594;2023-04-30T00:44:52;14.53;;;9.10;;
25567;SDS011;13455;51.480;7.594;2023-04-30T00:47:18;15.87;;;9.00;;
25567;SDS011;13455;51.480;7.594;2023-04-30T00:49:43;13.83;;;9.13;;
25567;SDS011;13455;51.480;7.594;2023-04-30T00:52:09;14.90;;;9.17;;
25567;SDS011;13455;51.480;7.594;2023-04-30T00:54:35;15.93;;;9.27;;
25567;SDS011;13455;51.480;7.594;2023-04-30T00:57:01;13.80;;;9.57;;
25567;SDS011;13455;51.480;7.594;2023-04-30T00:59:29;14.23;;;9.20;;
25567;SDS011;13455;51.480;7.594;2023-04-30T01:01:56;11.75;;;9.23;;
25567;SDS011;13455;51.480;7.594;2023-04-30T01:04:21;15.17;;;9.30;;
25567;SDS011;13455;51.480;7.594;2023-04-30T01:06:48;13.65;;;9.10;;
25567;SDS011;13455;51.480;7.594;2023-04-30T01:09:13;13.43;;;9.40;;
25567;SDS011;13455;51.480;7.594;2023-04-30T01:14:28;15.23;;;9.68;;
25567;SDS011;13455;51.480;7.594;2023-04-30T01:17:04;14.63;;;9.65;;
25567;SDS011;13455;51.480;7.594;2023-04-30T01:19:42;14.43;;;9.45;;
25567;SDS011;13455;51.480;7.594;2023-04-30T01:22:13;14.13;;;9.65;;
25567;SDS011;13455;51.480;7.594;2023-04-30T01:29:54;15.25;;;9.90;;
25567;SDS011;13455;51.480;7.594;2023-04-30T01:32:21;16.10;;;10.25;;
25567;SDS011;13455;51.480;7.594;2023-04-30T01:34:47;14.38;;;10.07;;
25567;SDS011;13455;51.480;7.594;2023-04-30T01:37:15;14.17;;;10.60;;
25567;SDS011;13455;51.480;7.594;2023-04-30T01:48:38;12.93;;;10.40;;
25567;SDS011;13455;51.480;7.594;2023-04-30T01:53:41;15.68;;;10.68;;
25567;SDS011;13455;51.480;7.594;2023-04-30T01:56:15;15.98;;;10.98;;
25567;SDS011;13455;51.480;7.594;2023-04-30T01:58:51;14.63;;;10.38;;
25567;SDS011;13455;51.480;7.594;2023-04-30T02:01:27;17.67;;;10.83;;
25567;SDS011;13455;51.480;7.594;2023-04-30T02:03:54;14.43;;;10.52;;
25567;SDS011;13455;51.480;7.594;2023-04-30T02:06:20;14.02;;;10.52;;
25567;SDS011;13455;51.480;7.594;2023-04-30T02:08:47;15.95;;;10.82;;
25567;SDS011;13455;51.480;7.594;2023-04-30T02:11:12;16.77;;;11.10;;
25567;SDS011;13455;51.480;7.594;2023-04-30T02:13:38;15.75;;;10.50;;
25567;SDS011;13455;51.480;7.594;2023-04-30T02:16:03;16.67;;;10.98;;
25567;SDS011;13455;51.480;7.594;2023-04-30T02:18:29;15.65;;;11.10;;
25567;SDS011;13455;51.480;7.594;2023-04-30T02:20:55;14.73;;;10.90;;
25567;SDS011;13455;51.480;7.594;2023-04-30T02:23:20;14.60;;;11.20;;
25567;SDS011;13455;51.480;7.594;2023-04-30T02:25:46;15.83;;;10.87;;
25567;SDS011;13455;51.480;7.594;2023-04-30T02:28:12;16.10;;;11.30;;
25567;SDS011;13455;51.480;7.594;2023-04-30T02:30:37;14.90;;;10.95;;
25567;SDS011;13455;51.480;7.594;2023-04-30T02:33:03;14.82;;;10.98;;
25567;SDS011;13455;51.480;7.594;2023-04-30T02:35:29;15.45;;;11.48;;
25567;SDS011;13455;51.480;7.594;2023-04-30T02:37:54;17.23;;;11.60;;
25567;SDS011;13455;51.480;7.594;2023-04-30T02:40:20;17.25;;;11.85;;
25567;SDS011;13455;51.480;7.594;2023-04-30T02:42:46;16.65;;;12.13;;
25567;SDS011;13455;51.480;7.594;2023-04-30T02:45:12;18.93;;;12.07;;
25567;SDS011;13455;51.480;7.594;2023-04-30T02:47:38;17.13;;;11.70;;
25567;SDS011;13455;51.480;7.594;2023-04-30T02:50:04;17.23;;;12.48;;
25567;SDS011;13455;51.480;7.594;2023-04-30T02:52:30;18.43;;;13.07;;
25567;SDS011;13455;51.480;7.594;2023-04-30T02:54:57;18.88;;;13.05;;
25567;SDS011;13455;51.480;7.594;2023-04-30T02:57:23;20.40;;;13.77;;
25567;SDS011;13455;51.480;7.594;2023-04-30T02:59:49;19.90;;;13.15;;
25567;SDS011;13455;51.480;7.594;2023-04-30T03:02:14;18.27;;;13.65;;
25567;SDS011;13455;51.480;7.594;2023-04-30T03:04:44;19.45;;;13.52;;
25567;SDS011;13455;51.480;7.594;2023-04-30T03:07:10;19.27;;;13.17;;
25567;SDS011;13455;51.480;7.594;2023-04-30T03:09:35;18.73;;;14.23;;
25567;SDS011;13455;51.480;7.594;2023-04-30T03:12:01;21.10;;;14.45;;
25567;SDS011;13455;51.480;7.594;2023-04-30T03:14:26;19.88;;;14.75;;
25567;SDS011;13455;51.480;7.594;2023-04-30T03:16:53;22.10;;;15.27;;
25567;SDS011;13455;51.480;7.594;2023-04-30T03:19:19;20.10;;;15.27;;
25567;SDS011;13455;51.480;7.594;2023-04-30T03:21:49;22.58;;;15.90;;
25567;SDS011;13455;51.480;7.594;2023-04-30T03:24:15;19.20;;;14.90;;
25567;SDS011;13455;51.480;7.594;2023-04-30T03:26:40;22.67;;;15.82;;
25567;SDS011;13455;51.480;7.594;2023-04-30T03:29:06;24.40;;;15.50;;
25567;SDS011;13455;51.480;7.594;2023-04-30T03:31:32;20.48;;;14.93;;
25567;SDS011;13455;51.480;7.594;2023-04-30T03:33:58;23.38;;;16.10;;
25567;SDS011;13455;51.480;7.594;2023-04-30T03:36:23;21.38;;;16.20;;
25567;SDS011;13455;51.480;7.594;2023-04-30T03:38:49;24.23;;;15.63;;
25567;SDS011;13455;51.480;7.594;2023-04-30T03:41:15;22.90;;;15.65;;
25567;SDS011;13455;51.480;7.594;2023-04-30T03:43:40;22.52;;;15.60;;
25567;SDS011;13455;51.480;7.594;2023-04-30T03:46:06;22.58;;;15.73;;
25567;SDS011;13455;51.480;7.594;2023-04-30T03:48:32;22.92;;;16.38;;
25567;SDS011;13455;51.480;7.594;2023-04-30T03:51:00;23.30;;;16.52;;
25567;SDS011;13455;51.480;7.594;2023-04-30T03:53:26;22.38;;;15.98;;
25567;SDS011;13455;51.480;7.594;2023-04-30T03:55:52;21.20;;;16.00;;
25567;SDS011;13455;51.480;7.594;2023-04-30T03:58:19;23.20;;;16.42;;
25567;SDS011;13455;51.480;7.594;2023-04-30T04:00:45;22.67;;;16.38;;
25567;SDS011;13455;51.480;7.594;2023-04-30T04:03:12;22.27;;;15.88;;
25567;SDS011;13455;51.480;7.594;2023-04-30T04:05:39;24.15;;;16.85;;
25567;SDS011;13455;51.480;7.594;2023-04-30T04:08:05;23.00;;;16.67;;
25567;SDS011;13455;51.480;7.594;2023-04-30T04:10:31;25.23;;;17.53;;
25567;SDS011;13455;51.480;7.594;2023-04-30T04:12:57;23.35;;;17.08;;
25567;SDS011;13455;51.480;7.594;2023-04-30T04:15:22;25.45;;;17.63;;
25567;SDS011;13455;51.480;7.594;2023-04-30T04:17:48;25.58;;;17.13;;
25567;SDS011;13455;51.480;7.594;2023-04-30T04:20:14;23.83;;;16.70;;
25567;SDS011;13455;51.480;7.594;2023-04-30T04:22:40;22.98;;;16.60;;
25567;SDS011;13455;51.480;7.594;2023-04-30T04:25:06;22.17;;;16.35;;
25567;SDS011;13455;51.480;7.594;2023-04-30T04:27:32;24.13;;;16.75;;
25567;SDS011;13455;51.480;7.594;2023-04-30T04:29:58;24.63;;;17.50;;
25567;SDS011;13455;51.480;7.594;2023-04-30T04:32:23;23.42;;;16.55;;
25567;SDS011;13455;51.480;7.594;2023-04-30T04:34:49;21.98;;;16.80;;
25567;SDS011;13455;51.480;7.594;2023-04-30T04:37:15;24.67;;;16.52;;
25567;SDS011;13455;51.480;7.594;2023-04-30T04:39:41;22.42;;;16.65;;
25567;SDS011;13455;51.480;7.594;2023-04-30T04:42:07;25.08;;;16.58;;
25567;SDS011;13455;51.480;7.594;2023-04-30T04:44:33;25.80;;;16.40;;
25567;SDS011;13455;51.480;7.594;2023-04-30T04:47:00;22.27;;;16.20;;
25567;SDS011;13455;51.480;7.594;2023-04-30T04:49:28;22.10;;;16.15;;
25567;SDS011;13455;51.480;7.594;2023-04-30T04:51:54;22.67;;;16.23;;
25567;SDS011;13455;51.480;7.594;2023-04-30T04:54:19;21.63;;;16.20;;
25567;SDS011;13455;51.480;7.594;2023-04-30T04:56:45;22.70;;;15.80;;
25567;SDS011;13455;51.480;7.594;2023-04-30T04:59:11;22.20;;;16.13;;
25567;SDS011;13455;51.480;7.594;2023-04-30T05:01:37;21.40;;;15.90;;
25567;SDS011;13455;51.480;7.594;2023-04-30T05:04:03;21.67;;;15.90;;
25567;SDS011;13455;51.480;7.594;2023-04-30T05:06:28;20.00;;;15.50;;
25567;SDS011;13455;51.480;7.594;2023-04-30T05:08:54;23.30;;;15.75;;
25567;SDS011;13455;51.480;7.594;2023-04-30T05:11:20;21.65;;;15.05;;
25567;SDS011;13455;51.480;7.594;2023-04-30T05:13:46;19.70;;;14.60;;
25567;SDS011;13455;51.480;7.594;2023-04-30T05:16:12;19.80;;;14.97;;
25567;SDS011;13455;51.480;7.594;2023-04-30T05:18:37;20.60;;;14.50;;
25567;SDS011;13455;51.480;7.594;2023-04-30T05:21:03;21.03;;;14.63;;
25567;SDS011;13455;51.480;7.594;2023-04-30T05:23:29;21.73;;;14.87;;
25567;SDS011;13455;51.480;7.594;2023-04-30T05:25:54;20.47;;;14.43;;
25567;SDS011;13455;51.480;7.594;2023-04-30T05:28:21;22.42;;;14.70;;
25567;SDS011;13455;51.480;7.594;2023-04-30T05:30:46;20.90;;;14.40;;
25567;SDS011;13455;51.480;7.594;2023-04-30T05:33:12;19.70;;;14.30;;
25567;SDS011;13455;51.480;7.594;2023-04-30T05:35:38;21.40;;;14.77;;
25567;SDS011;13455;51.480;7.594;2023-04-30T05:38:03;18.97;;;14.50;;
25567;SDS011;13455;51.480;7.594;2023-04-30T05:40:29;19.42;;;14.63;;
25567;SDS011;13455;51.480;7.594;2023-04-30T05:42:56;18.60;;;14.25;;
25567;SDS011;13455;51.480;7.594;2023-04-30T05:45:22;18.65;;;14.23;;
25567;SDS011;13455;51.480;7.594;2023-04-30T05:47:48;20.67;;;14.10;;
25567;SDS011;13455;51.480;7.594;2023-04-30T05:50:13;20.30;;;14.73;;
25567;SDS011;13455;51.480;7.594;2023-04-30T05:52:39;18.98;;;14.00;;
25567;SDS011;13455;51.480;7.594;2023-04-30T05:55:05;20.08;;;14.60;;
25567;SDS011;13455;51.480;7.594;2023-04-30T05:57:31;19.67;;;14.52;;
25567;SDS011;13455;51.480;7.594;2023-04-30T05:59:57;19.30;;;14.50;;
25567;SDS011;13455;51.480;7.594;2023-04-30T06:02:22;19.20;;;14.38;;
25567;SDS011;13455;51.480;7.594;2023-04-30T06:04:48;20.67;;;14.23;;
25567;SDS011;13455;51.480;7.594;2023-04-30T06:07:14;20.60;;;15.10;;
25567;SDS011;13455;51.480;7.594;2023-04-30T06:09:39;19.33;;;14.65;;
25567;SDS011;13455;51.480;7.594;2023-04-30T06:12:05;19.40;;;14.82;;
25567;SDS011;13455;51.480;7.594;2023-04-30T06:14:31;19.60;;;15.00;;
25567;SDS011;13455;51.480;7.594;2023-04-30T06:16:56;18.13;;;14.70;;
25567;SDS011;13455;51.480;7.594;2023-04-30T06:19:22;21.35;;;15.45;;
25567;SDS011;13455;51.480;7.594;2023-04-30T06:21:47;20.75;;;14.90;;
25567;SDS011;13455;51.480;7.594;2023-04-30T06:24:13;18.10;;;14.23;;
25567;SDS011;13455;51.480;7.594;2023-04-30T06:26:39;20.92;;;14.18;;
25567;SDS011;13455;51.480;7.594;2023-04-30T06:29:04;17.57;;;13.53;;
25567;SDS011;13455;51.480;7.594;2023-04-30T06:31:30;20.60;;;13.73;;
25567;SDS011;13455;51.480;7.594;2023-04-30T06:33:55;18.73;;;13.10;;
25567;SDS011;13455;51.480;7.594;2023-04-30T06:36:21;18.93;;;13.20;;
25567;SDS011;13455;51.480;7.594;2023-04-30T06:38:47;20.00;;;13.50;;
25567;SDS011;13455;51.480;7.594;2023-04-30T06:41:12;19.50;;;13.67;;
25567;SDS011;13455;51.480;7.594;2023-04-30T06:43:39;17.83;;;13.00;;
25567;SDS011;13455;51.480;7.594;2023-04-30T06:46:05;19.88;;;13.15;;
25567;SDS011;13455;51.480;7.594;2023-04-30T06:48:31;17.17;;;12.23;;
25567;SDS011;13455;51.480;7.594;2023-04-30T06:50:57;18.55;;;12.05;;
25567;SDS011;13455;51.480;7.594;2023-04-30T06:53:23;16.70;;;12.53;;
25567;SDS011;13455;51.480;7.594;2023-04-30T06:55:48;19.70;;;12.20;;
25567;SDS011;13455;51.480;7.594;2023-04-30T06:58:14;18.00;;;12.60;;
25567;SDS011;13455;51.480;7.594;2023-04-30T07:00:40;16.80;;;12.60;;
25567;SDS011;13455;51.480;7.594;2023-04-30T07:03:06;16.65;;;12.02;;
25567;SDS011;13455;51.480;7.594;2023-04-30T07:05:32;17.50;;;12.13;;
25567;SDS011;13455;51.480;7.594;2023-04-30T07:08:01;14.45;;;11.25;;
25567;SDS011;13455;51.480;7.594;2023-04-30T07:10:28;17.38;;;11.32;;
25567;SDS011;13455;51.480;7.594;2023-04-30T07:12:55;16.33;;;11.77;;
25567;SDS011;13455;51.480;7.594;2023-04-30T07:15:20;15.30;;;11.27;;
25567;SDS011;13455;51.480;7.594;2023-04-30T07:17:46;16.63;;;11.05;;
25567;SDS011;13455;51.480;7.594;2023-04-30T07:20:12;14.23;;;10.73;;
25567;SDS011;13455;51.480;7.594;2023-04-30T07:22:41;14.35;;;11.20;;
25567;SDS011;13455;51.480;7.594;2023-04-30T07:25:08;15.07;;;11.27;;
25567;SDS011;13455;51.480;7.594;2023-04-30T07:27:35;14.90;;;10.88;;
25567;SDS011;13455;51.480;7.594;2023-04-30T07:30:01;15.38;;;9.82;;
25567;SDS011;13455;51.480;7.594;2023-04-30T07:32:26;14.57;;;9.93;;
25567;SDS011;13455;51.480;7.594;2023-04-30T07:34:52;12.75;;;9.10;;
25567;SDS011;13455;51.480;7.594;2023-04-30T07:37:18;11.07;;;8.45;;
25567;SDS011;13455;51.480;7.594;2023-04-30T07:39:44;12.25;;;8.60;;
25567;SDS011;13455;51.480;7.594;2023-04-30T07:42:09;13.70;;;8.82;;
25567;SDS011;13455;51.480;7.594;2023-04-30T07:44:35;12.88;;;8.90;;
25567;SDS011;13455;51.480;7.594;2023-04-30T07:47:00;13.15;;;8.90;;
25567;SDS011;13455;51.480;7.594;2023-04-30T07:49:26;12.75;;;8.98;;
25567;SDS011;13455;51.480;7.594;2023-04-30T07:51:52;12.70;;;8.90;;
25567;SDS011;13455;51.480;7.594;2023-04-30T07:54:18;12.35;;;8.63;;
25567;SDS011;13455;51.480;7.594;2023-04-30T07:56:45;13.23;;;8.70;;
25567;SDS011;13455;51.480;7.594;2023-04-30T07:59:12;11.80;;;8.50;;
25567;SDS011;13455;51.480;7.594;2023-04-30T08:01:38;12.77;;;8.00;;
25567;SDS011;13455;51.480;7.594;2023-04-30T08:04:04;11.73;;;8.05;;
25567;SDS011;13455;51.480;7.594;2023-04-30T08:06:30;11.07;;;7.72;;
25567;SDS011;13455;51.480;7.594;2023-04-30T08:08:56;11.57;;;7.70;;
25567;SDS011;13455;51.480;7.594;2023-04-30T08:11:22;12.25;;;8.10;;
25567;SDS011;13455;51.480;7.594;2023-04-30T08:13:48;11.00;;;7.70;;
25567;SDS011;13455;51.480;7.594;2023-04-30T08:16:15;12.05;;;7.88;;
25567;SDS011;13455;51.480;7.594;2023-04-30T08:18:41;9.88;;;7.82;;
25567;SDS011;13455;51.480;7.594;2023-04-30T08:21:09;10.40;;;7.35;;
25567;SDS011;13455;51.480;7.594;2023-04-30T08:23:35;9.45;;;6.88;;
25567;SDS011;13455;51.480;7.594;2023-04-30T08:26:01;10.03;;;6.87;;
25567;SDS011;13455;51.480;7.594;2023-04-30T08:28:27;10.77;;;7.00;;
25567;SDS011;13455;51.480;7.594;2023-04-30T08:30:52;10.70;;;7.40;;
25567;SDS011;13455;51.480;7.594;2023-04-30T08:33:18;9.93;;;7.43;;
25567;SDS011;13455;51.480;7.594;2023-04-30T08:35:44;10.50;;;7.22;;
25567;SDS011;13455;51.480;7.594;2023-04-30T08:38:09;8.85;;;6.60;;
25567;SDS011;13455;51.480;7.594;2023-04-30T08:40:37;9.65;;;6.78;;
25567;SDS011;13455;51.480;7.594;2023-04-30T08:43:05;8.60;;;6.40;;
25567;SDS011;13455;51.480;7.594;2023-04-30T08:45:32;9.88;;;7.40;;
25567;SDS011;13455;51.480;7.594;2023-04-30T08:47:58;9.82;;;7.32;;
25567;SDS011;13455;51.480;7.594;2023-04-30T08:50:25;10.23;;;7.10;;
25567;SDS011;13455;51.480;7.594;2023-04-30T08:52:51;11.23;;;7.53;;
25567;SDS011;13455;51.480;7.594;2023-04-30T08:55:17;9.70;;;6.90;;
25567;SDS011;13455;51.480;7.594;2023-04-30T08:57:43;10.00;;;6.95;;
25567;SDS011;13455;51.480;7.594;2023-04-30T09:00:11;10.13;;;6.60;;
25567;SDS011;13455;51.480;7.594;2023-04-30T09:02:40;8.82;;;6.30;;
25567;SDS011;13455;51.480;7.594;2023-04-30T09:05:11;8.55;;;5.85;;
25567;SDS011;13455;51.480;7.594;2023-04-30T09:07:40;9.48;;;6.55;;
25567;SDS011;13455;51.480;7.594;2023-04-30T09:12:40;7.65;;;5.63;;
25567;SDS011;13455;51.480;7.594;2023-04-30T09:15:09;9.35;;;5.90;;
25567;SDS011;13455;51.480;7.594;2023-04-30T09:17:36;8.15;;;5.60;;
25567;SDS011;13455;51.480;7.594;2023-04-30T09:22:35;8.37;;;5.83;;
25567;SDS011;13455;51.480;7.594;2023-04-30T09:25:02;7.88;;;5.38;;
25567;SDS011;13455;51.480;7.594;2023-04-30T09:27:29;8.23;;;4.88;;
25567;SDS011;13455;51.480;7.594;2023-04-30T09:29:55;7.20;;;4.85;;
25567;SDS011;13455;51.480;7.594;2023-04-30T09:32:21;8.55;;;4.90;;
25567;SDS011;13455;51.480;7.594;2023-04-30T09:34:46;6.40;;;4.80;;
25567;SDS011;13455;51.480;7.594;2023-04-30T09:37:12;8.33;;;4.63;;
25567;SDS011;13455;51.480;7.594;2023-04-30T09:42:14;6.15;;;4.10;;
25567;SDS011;13455;51.480;7.594;2023-04-30T09:44:39;6.60;;;4.60;;
25567;SDS011;13455;51.480;7.594;2023-04-30T09:49:43;6.43;;;4.50;;
25567;SDS011;13455;51.480;7.594;2023-04-30T09:52:15;7.45;;;5.45;;
25567;SDS011;13455;51.480;7.594;2023-04-30T09:54:42;6.63;;;4.60;;
25567;SDS011;13455;51.480;7.594;2023-04-30T09:57:12;7.53;;;4.47;;
25567;SDS011;13455;51.480;7.594;2023-04-30T09:59:42;7.22;;;5.07;;
25567;SDS011;13455;51.480;7.594;2023-04-30T10:02:09;4.45;;;3.20;;
25567;SDS011;13455;51.480;7.594;2023-04-30T10:04:37;5.53;;;3.30;;
25567;SDS011;13455;51.480;7.594;2023-04-30T10:07:09;4.50;;;3.20;;
25567;SDS011;13455;51.480;7.594;2023-04-30T10:09:38;3.90;;;3.00;;
25567;SDS011;13455;51.480;7.594;2023-04-30T10:12:15;5.00;;;3.80;;
25567;SDS011;13455;51.480;7.594;2023-04-30T10:14:47;4.57;;;3.47;;
25567;SDS011;13455;51.480;7.594;2023-04-30T10:17:30;5.28;;;3.35;;
25567;SDS011;13455;51.480;7.594;2023-04-30T10:20:00;5.40;;;3.80;;
25567;SDS011;13455;51.480;7.594;2023-04-30T10:22:29;7.57;;;4.20;;
25567;SDS011;13455;51.480;7.594;2023-04-30T10:24:56;5.80;;;3.50;;
25567;SDS011;13455;51.480;7.594;2023-04-30T10:27:23;6.37;;;4.40;;
25567;SDS011;13455;51.480;7.594;2023-04-30T10:29:49;6.50;;;4.23;;
25567;SDS011;13455;51.480;7.594;2023-04-30T10:32:15;5.97;;;4.15;;
25567;SDS011;13455;51.480;7.594;2023-04-30T10:37:54;6.32;;;4.18;;
25567;SDS011;13455;51.480;7.594;2023-04-30T10:40:28;9.18;;;5.10;;
25567;SDS011;13455;51.480;7.594;2023-04-30T10:42:59;5.40;;;3.75;;
25567;SDS011;13455;51.480;7.594;2023-04-30T10:45:34;6.20;;;4.00;;
25567;SDS011;13455;51.480;7.594;2023-04-30T10:48:02;5.93;;;4.10;;
25567;SDS011;13455;51.480;7.594;2023-04-30T10:50:28;4.68;;;3.70;;
25567;SDS011;13455;51.480;7.594;2023-04-30T10:53:01;4.47;;;3.33;;
25567;SDS011;13455;51.480;7.594;2023-04-30T10:55:28;4.80;;;3.42;;
25567;SDS011;13455;51.480;7.594;2023-04-30T10:57:54;4.65;;;3.30;;
25567;SDS011;13455;51.480;7.594;2023-04-30T11:00:25;5.30;;;3.50;;
25567;SDS011;13455;51.480;7.594;2023-04-30T11:02:57;5.70;;;3.40;;
25567;SDS011;13455;51.480;7.594;2023-04-30T11:05:34;4.82;;;3.88;;
25567;SDS011;13455;51.480;7.594;2023-04-30T11:08:02;4.82;;;3.33;;
25567;SDS011;13455;51.480;7.594;2023-04-30T11:10:30;5.43;;;3.70;;
25567;SDS011;13455;51.480;7.594;2023-04-30T11:12:57;5.80;;;3.88;;
25567;SDS011;13455;51.480;7.594;2023-04-30T11:15:49;5.90;;;3.85;;
25567;SDS011;13455;51.480;7.594;2023-04-30T11:18:15;5.97;;;3.88;;
25567;SDS011;13455;51.480;7.594;2023-04-30T11:20:48;7.23;;;4.43;;
25567;SDS011;13455;51.480;7.594;2023-04-30T11:23:21;8.65;;;4.80;;
25567;SDS011;13455;51.480;7.594;2023-04-30T11:25:48;6.72;;;4.60;;
25567;SDS011;13455;51.480;7.594;2023-04-30T11:28:18;8.80;;;4.47;;
25567;SDS011;13455;51.480;7.594;2023-04-30T11:30:55;6.70;;;4.30;;
25567;SDS011;13455;51.480;7.594;2023-04-30T11:33:25;5.23;;;3.47;;
25567;SDS011;13455;51.480;7.594;2023-04-30T11:35:51;6.35;;;3.25;;
25567;SDS011;13455;51.480;7.594;2023-04-30T11:38:29;6.27;;;4.40;;
25567;SDS011;13455;51.480;7.594;2023-04-30T11:41:00;6.10;;;4.37;;
25567;SDS011;13455;51.480;7.594;2023-04-30T11:43:27;7.53;;;4.20;;
25567;SDS011;13455;51.480;7.594;2023-04-30T11:48:34;5.65;;;3.38;;
25567;SDS011;13455;51.480;7.594;2023-04-30T11:51:16;7.18;;;4.00;;
25567;SDS011;13455;51.480;7.594;2023-04-30T11:53:43;4.82;;;3.60;;
25567;SDS011;13455;51.480;7.594;2023-04-30T11:56:10;6.47;;;3.92;;
25567;SDS011;13455;51.480;7.594;2023-04-30T11:58:36;5.78;;;3.90;;
25567;SDS011;13455;51.480;7.594;2023-04-30T12:01:06;5.30;;;3.55;;
25567;SDS011;13455;51.480;7.594;2023-04-30T12:03:39;5.17;;;3.40;;
25567;SDS011;13455;51.480;7.594;2023-04-30T12:06:08;4.47;;;3.38;;
25567;SDS011;13455;51.480;7.594;2023-04-30T12:08:36;4.50;;;2.97;;
25567;SDS011;13455;51.480;7.594;2023-04-30T12:11:03;4.10;;;2.67;;
25567;SDS011;13455;51.480;7.594;2023-04-30T12:13:31;5.07;;;3.00;;
25567;SDS011;13455;51.480;7.594;2023-04-30T12:15:58;4.78;;;2.70;;
25567;SDS011;13455;51.480;7.594;2023-04-30T12:18:25;4.57;;;2.75;;
25567;SDS011;13455;51.480;7.594;2023-04-30T12:20:51;3.92;;;2.10;;
25567;SDS011;13455;51.480;7.594;2023-04-30T12:23:18;4.80;;;2.90;;
25567;SDS011;13455;51.480;7.594;2023-04-30T12:25:43;4.95;;;2.80;;
25567;SDS011;13455;51.480;7.594;2023-04-30T12:28:10;3.90;;;2.70;;
25567;SDS011;13455;51.480;7.594;2023-04-30T12:30:36;4.30;;;2.50;;
25567;SDS011;13455;51.480;7.594;2023-04-30T12:33:02;4.15;;;2.42;;
25567;SDS011;13455;51.480;7.594;2023-04-30T12:35:28;3.70;;;2.17;;
25567;SDS011;13455;51.480;7.594;2023-04-30T12:38:05;5.15;;;2.80;;
25567;SDS011;13455;51.480;7.594;2023-04-30T12:40:32;4.43;;;2.80;;
25567;SDS011;13455;51.480;7.594;2023-04-30T12:43:02;4.75;;;2.38;;
25567;SDS011;13455;51.480;7.594;2023-04-30T12:48:17;5.03;;;2.30;;
25567;SDS011;13455;51.480;7.594;2023-04-30T12:50:47;3.10;;;2.00;;
25567;SDS011;13455;51.480;7.594;2023-04-30T12:53:16;3.47;;;2.00;;
25567;SDS011;13455;51.480;7.594;2023-04-30T12:55:42;4.37;;;2.20;;
25567;SDS011;13455;51.480;7.594;2023-04-30T13:03:10;3.33;;;1.90;;
25567;SDS011;13455;51.480;7.594;2023-04-30T13:05:36;3.00;;;2.00;;
25567;SDS011;13455;51.480;7.594;2023-04-30T13:08:02;2.78;;;1.77;;
25567;SDS011;13455;51.480;7.594;2023-04-30T13:10:30;3.38;;;1.70;;
25567;SDS011;13455;51.480;7.594;2023-04-30T13:12:56;3.13;;;1.70;;
25567;SDS011;13455;51.480;7.594;2023-04-30T13:15:22;3.13;;;1.60;;
25567;SDS011;13455;51.480;7.594;2023-04-30T13:17:48;4.25;;;1.70;;
25567;SDS011;13455;51.480;7.594;2023-04-30T13:20:16;3.45;;;1.85;;
25567;SDS011;13455;51.480;7.594;2023-04-30T13:22:42;3.10;;;1.70;;
25567;SDS011;13455;51.480;7.594;2023-04-30T13:25:08;2.83;;;1.70;;
25567;SDS011;13455;51.480;7.594;2023-04-30T13:27:34;2.50;;;1.60;;
25567;SDS011;13455;51.480;7.594;2023-04-30T13:30:01;2.63;;;1.70;;
25567;SDS011;13455;51.480;7.594;2023-04-30T13:32:27;3.53;;;1.77;;
25567;SDS011;13455;51.480;7.594;2023-04-30T13:34:53;2.60;;;1.60;;
25567;SDS011;13455;51.480;7.594;2023-04-30T13:37:20;3.03;;;1.40;;
25567;SDS011;13455;51.480;7.594;2023-04-30T13:39:45;2.03;;;1.30;;
25567;SDS011;13455;51.480;7.594;2023-04-30T13:42:12;4.20;;;1.30;;
25567;SDS011;13455;51.480;7.594;2023-04-30T13:44:38;2.83;;;1.38;;
25567;SDS011;13455;51.480;7.594;2023-04-30T13:47:04;3.55;;;1.27;;
25567;SDS011;13455;51.480;7.594;2023-04-30T13:49:31;2.70;;;1.43;;
25567;SDS011;13455;51.480;7.594;2023-04-30T13:51:59;4.57;;;1.60;;
25567;SDS011;13455;51.480;7.594;2023-04-30T13:54:24;3.03;;;1.50;;
25567;SDS011;13455;51.480;7.594;2023-04-30T13:56:50;3.83;;;1.50;;
25567;SDS011;13455;51.480;7.594;2023-04-30T13:59:16;3.27;;;1.40;;
25567;SDS011;13455;51.480;7.594;2023-04-30T14:01:42;4.18;;;1.80;;
25567;SDS011;13455;51.480;7.594;2023-04-30T14:04:08;3.70;;;1.70;;
25567;SDS011;13455;51.480;7.594;2023-04-30T14:06:34;2.90;;;1.60;;
25567;SDS011;13455;51.480;7.594;2023-04-30T14:09:02;3.25;;;1.70;;
25567;SDS011;13455;51.480;7.594;2023-04-30T14:11:28;3.58;;;1.73;;
25567;SDS011;13455;51.480;7.594;2023-04-30T14:13:54;3.03;;;1.63;;
25567;SDS011;13455;51.480;7.594;2023-04-30T14:16:19;3.00;;;1.60;;
25567;SDS011;13455;51.480;7.594;2023-04-30T14:18:46;3.25;;;1.30;;
25567;SDS011;13455;51.480;7.594;2023-04-30T14:21:12;3.55;;;1.42;;
25567;SDS011;13455;51.480;7.594;2023-04-30T14:23:38;2.93;;;1.40;;
25567;SDS011;13455;51.480;7.594;2023-04-30T14:26:03;3.45;;;1.42;;
25567;SDS011;13455;51.480;7.594;2023-04-30T14:28:29;3.20;;;1.20;;
25567;SDS011;13455;51.480;7.594;2023-04-30T14:30:55;3.55;;;1.40;;
25567;SDS011;13455;51.480;7.594;2023-04-30T14:33:21;3.63;;;1.20;;
25567;SDS011;13455;51.480;7.594;2023-04-30T14:35:47;3.08;;;1.45;;
25567;SDS011;13455;51.480;7.594;2023-04-30T14:38:13;4.37;;;1.70;;
25567;SDS011;13455;51.480;7.594;2023-04-30T14:40:39;4.28;;;1.50;;
25567;SDS011;13455;51.480;7.594;2023-04-30T14:43:04;3.50;;;1.30;;
25567;SDS011;13455;51.480;7.594;2023-04-30T14:45:33;2.33;;;1.20;;
25567;SDS011;13455;51.480;7.594;2023-04-30T14:47:59;3.15;;;1.20;;
25567;SDS011;13455;51.480;7.594;2023-04-30T14:50:25;3.23;;;1.27;;
25567;SDS011;13455;51.480;7.594;2023-04-30T14:52:51;2.60;;;1.13;;
25567;SDS011;13455;51.480;7.594;2023-04-30T14:55:17;3.90;;;1.00;;
25567;SDS011;13455;51.480;7.594;2023-04-30T14:57:43;2.60;;;1.20;;
25567;SDS011;13455;51.480;7.594;2023-04-30T15:00:09;3.15;;;1.00;;
25567;SDS011;13455;51.480;7.594;2023-04-30T15:02:36;2.17;;;0.85;;
25567;SDS011;13455;51.480;7.594;2023-04-30T15:05:05;2.90;;;0.88;;
25567;SDS011;13455;51.480;7.594;2023-04-30T15:07:32;2.58;;;0.90;;
25567;SDS011;13455;51.480;7.594;2023-04-30T15:09:58;2.83;;;1.08;;
25567;SDS011;13455;51.480;7.594;2023-04-30T15:12:24;2.77;;;0.70;;
25567;SDS011;13455;51.480;7.594;2023-04-30T15:14:50;2.63;;;0.93;;
25567;SDS011;13455;51.480;7.594;2023-04-30T15:17:16;3.60;;;1.10;;